sensor_id;sensor_type;location;lat;lon;timestamp;P1;durP1;ratioP1;P2;durP2;ratioP2
73567;SDS011;61847;54.994;73.310;2022-11-04T00:02:23;5.80;;;1.65;;
73567;SDS011;61847;54.994;73.310;2022-11-04T00:04:49;6.38;;;1.95;;
73567;SDS011;61847;54.994;73.310;2022-11-04T00:07:15;5.80;;;1.90;;
73567;SDS011;61847;54.994;73.310;2022-11-04T00:09:59;11.23;;;2.10;;
73567;SDS011;61847;54.994;73.310;2022-11-04T00:12:26;4.70;;;1.85;;
73567;SDS011;61847;54.994;73.310;2022-11-04T00:14:52;7.30;;;1.77;;
73567;SDS011;61847;54.994;73.310;2022-11-04T00:17:18;4.72;;;1.73;;
73567;SDS011;61847;54.994;73.310;2022-11-04T00:19:47;4.05;;;1.67;;
73567;SDS011;61847;54.994;73.310;2022-11-04T00:22:34;12.77;;;1.55;;
73567;SDS011;61847;54.994;73.310;2022-11-04T00:25:19;7.25;;;1.80;;
73567;SDS011;61847;54.994;73.310;2022-11-04T00:28:13;7.60;;;1.75;;
73567;SDS011;61847;54.994;73.310;2022-11-04T00:31:11;4.50;;;1.90;;
73567;SDS011;61847;54.994;73.310;2022-11-04T00:33:56;6.57;;;2.13;;
73567;SDS011;61847;54.994;73.310;2022-11-04T00:36:28;6.70;;;1.67;;
73567;SDS011;61847;54.994;73.310;2022-11-04T00:38:59;4.32;;;1.80;;
73567;SDS011;61847;54.994;73.310;2022-11-04T00:41:25;3.72;;;1.50;;
73567;SDS011;61847;54.994;73.310;2022-11-04T00:44:01;8.05;;;1.70;;
73567;SDS011;61847;54.994;73.310;2022-11-04T00:46:32;5.00;;;1.50;;
73567;SDS011;61847;54.994;73.310;2022-11-04T00:49:02;9.02;;;1.48;;
73567;SDS011;61847;54.994;73.310;2022-11-04T00:51:28;6.00;;;1.40;;
73567;SDS011;61847;54.994;73.310;2022-11-04T00:53:58;7.25;;;2.15;;
73567;SDS011;61847;54.994;73.310;2022-11-04T00:56:24;7.20;;;1.70;;
73567;SDS011;61847;54.994;73.310;2022-11-04T00:58:50;5.05;;;1.52;;
73567;SDS011;61847;54.994;73.310;2022-11-04T01:01:17;5.63;;;1.90;;
73567;SDS011;61847;54.994;73.310;2022-11-04T01:03:49;4.70;;;1.80;;
73567;SDS011;61847;54.994;73.310;2022-11-04T01:06:17;4.43;;;1.95;;
73567;SDS011;61847;54.994;73.310;2022-11-04T01:08:45;8.93;;;2.10;;
73567;SDS011;61847;54.994;73.310;2022-11-04T01:11:12;4.18;;;1.70;;
73567;SDS011;61847;54.994;73.310;2022-11-04T01:13:38;6.80;;;2.03;;
73567;SDS011;61847;54.994;73.310;2022-11-04T01:16:09;5.75;;;2.10;;
73567;SDS011;61847;54.994;73.310;2022-11-04T01:18:36;3.92;;;1.48;;
73567;SDS011;61847;54.994;73.310;2022-11-04T01:21:06;9.27;;;2.13;;
73567;SDS011;61847;54.994;73.310;2022-11-04T01:23:35;4.55;;;1.77;;
73567;SDS011;61847;54.994;73.310;2022-11-04T01:26:05;6.10;;;1.75;;
73567;SDS011;61847;54.994;73.310;2022-11-04T01:28:44;7.53;;;2.00;;
73567;SDS011;61847;54.994;73.310;2022-11-04T01:31:16;8.13;;;1.80;;
73567;SDS011;61847;54.994;73.310;2022-11-04T01:33:46;9.60;;;2.30;;
73567;SDS011;61847;54.994;73.310;2022-11-04T01:36:14;4.15;;;1.90;;
73567;SDS011;61847;54.994;73.310;2022-11-04T01:38:40;6.63;;;2.13;;
73567;SDS011;61847;54.994;73.310;2022-11-04T01:41:07;5.85;;;1.77;;
73567;SDS011;61847;54.994;73.310;2022-11-04T01:43:44;5.25;;;1.90;;
73567;SDS011;61847;54.994;73.310;2022-11-04T01:48:48;5.28;;;1.88;;
73567;SDS011;61847;54.994;73.310;2022-11-04T01:51:20;5.57;;;2.05;;
73567;SDS011;61847;54.994;73.310;2022-11-04T01:53:47;4.57;;;1.75;;
73567;SDS011;61847;54.994;73.310;2022-11-04T01:56:27;2.90;;;1.55;;
73567;SDS011;61847;54.994;73.310;2022-11-04T01:58:54;3.63;;;1.75;;
73567;SDS011;61847;54.994;73.310;2022-11-04T02:01:24;4.07;;;1.70;;
73567;SDS011;61847;54.994;73.310;2022-11-04T02:03:54;3.40;;;1.48;;
73567;SDS011;61847;54.994;73.310;2022-11-04T02:06:45;5.47;;;1.83;;
73567;SDS011;61847;54.994;73.310;2022-11-04T02:09:13;6.68;;;1.40;;
73567;SDS011;61847;54.994;73.310;2022-11-04T02:11:41;2.90;;;1.70;;
73567;SDS011;61847;54.994;73.310;2022-11-04T02:14:35;4.18;;;1.30;;
73567;SDS011;61847;54.994;73.310;2022-11-04T02:31:40;10.73;;;1.90;;
73567;SDS011;61847;54.994;73.310;2022-11-04T02:37:13;3.20;;;1.60;;
73567;SDS011;61847;54.994;73.310;2022-11-04T02:42:57;6.00;;;1.63;;
73567;SDS011;61847;54.994;73.310;2022-11-04T02:48:07;4.78;;;1.80;;
73567;SDS011;61847;54.994;73.310;2022-11-04T02:50:43;5.32;;;1.85;;
73567;SDS011;61847;54.994;73.310;2022-11-04T02:53:18;6.30;;;1.88;;
73567;SDS011;61847;54.994;73.310;2022-11-04T02:55:51;4.95;;;1.75;;
73567;SDS011;61847;54.994;73.310;2022-11-04T02:58:26;4.35;;;1.85;;
73567;SDS011;61847;54.994;73.310;2022-11-04T03:00:55;5.32;;;1.90;;
73567;SDS011;61847;54.994;73.310;2022-11-04T03:03:27;10.15;;;2.13;;
73567;SDS011;61847;54.994;73.310;2022-11-04T03:05:57;4.53;;;2.03;;
73567;SDS011;61847;54.994;73.310;2022-11-04T03:08:29;5.57;;;2.40;;
73567;SDS011;61847;54.994;73.310;2022-11-04T03:11:16;6.47;;;2.70;;
73567;SDS011;61847;54.994;73.310;2022-11-04T03:16:19;6.13;;;2.38;;
73567;SDS011;61847;54.994;73.310;2022-11-04T03:21:26;5.20;;;2.20;;
73567;SDS011;61847;54.994;73.310;2022-11-04T03:23:58;6.80;;;1.90;;
73567;SDS011;61847;54.994;73.310;2022-11-04T03:26:34;10.00;;;2.00;;
73567;SDS011;61847;54.994;73.310;2022-11-04T03:34:28;5.25;;;2.45;;
73567;SDS011;61847;54.994;73.310;2022-11-04T03:37:05;3.38;;;1.85;;
73567;SDS011;61847;54.994;73.310;2022-11-04T03:39:31;6.50;;;2.30;;
73567;SDS011;61847;54.994;73.310;2022-11-04T03:41:59;6.75;;;2.00;;
73567;SDS011;61847;54.994;73.310;2022-11-04T03:44:51;4.35;;;1.80;;
73567;SDS011;61847;54.994;73.310;2022-11-04T03:47:20;7.80;;;2.20;;
73567;SDS011;61847;54.994;73.310;2022-11-04T03:49:50;2.80;;;1.67;;
73567;SDS011;61847;54.994;73.310;2022-11-04T03:54:48;5.53;;;1.60;;
73567;SDS011;61847;54.994;73.310;2022-11-04T04:00:35;4.22;;;1.60;;
73567;SDS011;61847;54.994;73.310;2022-11-04T04:06:27;7.50;;;2.08;;
73567;SDS011;61847;54.994;73.310;2022-11-04T04:11:53;4.75;;;1.75;;
73567;SDS011;61847;54.994;73.310;2022-11-04T04:14:41;6.72;;;1.67;;
73567;SDS011;61847;54.994;73.310;2022-11-04T04:17:17;4.57;;;1.52;;
73567;SDS011;61847;54.994;73.310;2022-11-04T04:20:08;5.95;;;1.58;;
73567;SDS011;61847;54.994;73.310;2022-11-04T04:22:39;7.38;;;1.90;;
73567;SDS011;61847;54.994;73.310;2022-11-04T04:25:09;7.53;;;1.67;;
73567;SDS011;61847;54.994;73.310;2022-11-04T04:27:56;4.70;;;1.55;;
73567;SDS011;61847;54.994;73.310;2022-11-04T04:30:23;3.42;;;1.40;;
73567;SDS011;61847;54.994;73.310;2022-11-04T04:33:08;8.15;;;1.65;;
73567;SDS011;61847;54.994;73.310;2022-11-04T04:35:39;4.05;;;1.45;;
73567;SDS011;61847;54.994;73.310;2022-11-04T04:41:15;6.78;;;1.70;;
73567;SDS011;61847;54.994;73.310;2022-11-04T04:44:00;4.50;;;1.73;;
73567;SDS011;61847;54.994;73.310;2022-11-04T04:46:46;7.53;;;1.63;;
73567;SDS011;61847;54.994;73.310;2022-11-04T04:49:15;4.70;;;1.92;;
73567;SDS011;61847;54.994;73.310;2022-11-04T04:51:51;7.60;;;1.70;;
73567;SDS011;61847;54.994;73.310;2022-11-04T04:54:18;8.70;;;1.98;;
73567;SDS011;61847;54.994;73.310;2022-11-04T04:56:44;11.32;;;1.83;;
73567;SDS011;61847;54.994;73.310;2022-11-04T04:59:10;8.38;;;1.70;;
73567;SDS011;61847;54.994;73.310;2022-11-04T05:01:36;4.53;;;1.58;;
73567;SDS011;61847;54.994;73.310;2022-11-04T05:04:02;6.28;;;1.65;;
73567;SDS011;61847;54.994;73.310;2022-11-04T05:06:29;12.25;;;2.22;;
73567;SDS011;61847;54.994;73.310;2022-11-04T05:08:55;4.90;;;2.08;;
73567;SDS011;61847;54.994;73.310;2022-11-04T05:11:21;8.95;;;2.20;;
73567;SDS011;61847;54.994;73.310;2022-11-04T05:13:52;9.68;;;2.70;;
73567;SDS011;61847;54.994;73.310;2022-11-04T05:16:18;5.13;;;2.22;;
73567;SDS011;61847;54.994;73.310;2022-11-04T05:18:45;8.00;;;2.85;;
73567;SDS011;61847;54.994;73.310;2022-11-04T05:21:12;7.38;;;2.55;;
73567;SDS011;61847;54.994;73.310;2022-11-04T05:23:40;8.38;;;2.60;;
73567;SDS011;61847;54.994;73.310;2022-11-04T05:26:09;16.90;;;2.72;;
73567;SDS011;61847;54.994;73.310;2022-11-04T05:28:35;12.65;;;3.47;;
73567;SDS011;61847;54.994;73.310;2022-11-04T05:31:02;9.10;;;2.10;;
73567;SDS011;61847;54.994;73.310;2022-11-04T05:33:30;9.35;;;2.50;;
73567;SDS011;61847;54.994;73.310;2022-11-04T05:36:06;7.28;;;2.25;;
73567;SDS011;61847;54.994;73.310;2022-11-04T05:38:33;5.63;;;2.45;;
73567;SDS011;61847;54.994;73.310;2022-11-04T05:40:59;5.55;;;2.47;;
73567;SDS011;61847;54.994;73.310;2022-11-04T05:43:34;10.50;;;2.30;;
73567;SDS011;61847;54.994;73.310;2022-11-04T05:46:01;7.28;;;2.00;;
73567;SDS011;61847;54.994;73.310;2022-11-04T05:48:27;8.35;;;2.00;;
73567;SDS011;61847;54.994;73.310;2022-11-04T05:50:53;6.95;;;1.95;;
73567;SDS011;61847;54.994;73.310;2022-11-04T05:53:20;6.30;;;1.58;;
73567;SDS011;61847;54.994;73.310;2022-11-04T05:55:46;4.20;;;1.73;;
73567;SDS011;61847;54.994;73.310;2022-11-04T05:58:12;4.07;;;1.60;;
73567;SDS011;61847;54.994;73.310;2022-11-04T06:00:38;15.05;;;2.10;;
73567;SDS011;61847;54.994;73.310;2022-11-04T06:03:05;7.05;;;1.88;;
73567;SDS011;61847;54.994;73.310;2022-11-04T06:05:31;4.38;;;1.48;;
73567;SDS011;61847;54.994;73.310;2022-11-04T06:07:57;5.28;;;1.40;;
73567;SDS011;61847;54.994;73.310;2022-11-04T06:10:23;8.05;;;1.90;;
73567;SDS011;61847;54.994;73.310;2022-11-04T06:12:50;3.35;;;1.55;;
73567;SDS011;61847;54.994;73.310;2022-11-04T06:15:16;7.25;;;2.03;;
73567;SDS011;61847;54.994;73.310;2022-11-04T06:17:45;12.98;;;2.08;;
73567;SDS011;61847;54.994;73.310;2022-11-04T06:20:11;9.20;;;2.92;;
73567;SDS011;61847;54.994;73.310;2022-11-04T06:22:37;9.43;;;2.67;;
73567;SDS011;61847;54.994;73.310;2022-11-04T06:25:03;5.75;;;2.40;;
73567;SDS011;61847;54.994;73.310;2022-11-04T06:27:30;7.70;;;2.38;;
73567;SDS011;61847;54.994;73.310;2022-11-04T06:29:56;8.40;;;2.63;;
73567;SDS011;61847;54.994;73.310;2022-11-04T06:32:28;8.30;;;2.33;;
73567;SDS011;61847;54.994;73.310;2022-11-04T06:34:59;9.90;;;2.95;;
73567;SDS011;61847;54.994;73.310;2022-11-04T06:37:25;5.72;;;2.45;;
73567;SDS011;61847;54.994;73.310;2022-11-04T06:39:51;7.47;;;2.15;;
73567;SDS011;61847;54.994;73.310;2022-11-04T06:42:17;10.05;;;2.47;;
73567;SDS011;61847;54.994;73.310;2022-11-04T06:44:44;5.32;;;1.90;;
73567;SDS011;61847;54.994;73.310;2022-11-04T06:47:10;9.68;;;2.05;;
73567;SDS011;61847;54.994;73.310;2022-11-04T06:49:39;5.95;;;1.92;;
73567;SDS011;61847;54.994;73.310;2022-11-04T06:52:06;2.67;;;1.25;;
73567;SDS011;61847;54.994;73.310;2022-11-04T06:54:32;7.10;;;1.58;;
73567;SDS011;61847;54.994;73.310;2022-11-04T06:56:59;5.50;;;1.50;;
73567;SDS011;61847;54.994;73.310;2022-11-04T06:59:27;7.70;;;1.42;;
73567;SDS011;61847;54.994;73.310;2022-11-04T07:01:53;4.15;;;1.50;;
73567;SDS011;61847;54.994;73.310;2022-11-04T07:04:19;5.75;;;2.70;;
73567;SDS011;61847;54.994;73.310;2022-11-04T07:06:56;5.65;;;2.25;;
73567;SDS011;61847;54.994;73.310;2022-11-04T07:09:22;4.57;;;1.60;;
73567;SDS011;61847;54.994;73.310;2022-11-04T07:11:58;6.18;;;2.17;;
73567;SDS011;61847;54.994;73.310;2022-11-04T07:14:24;3.85;;;1.83;;
73567;SDS011;61847;54.994;73.310;2022-11-04T07:16:50;5.90;;;1.75;;
73567;SDS011;61847;54.994;73.310;2022-11-04T07:19:16;9.90;;;2.03;;
73567;SDS011;61847;54.994;73.310;2022-11-04T07:21:43;5.07;;;1.77;;
73567;SDS011;61847;54.994;73.310;2022-11-04T07:24:09;5.05;;;1.70;;
73567;SDS011;61847;54.994;73.310;2022-11-04T07:26:36;5.88;;;1.83;;
73567;SDS011;61847;54.994;73.310;2022-11-04T07:29:02;2.92;;;1.10;;
73567;SDS011;61847;54.994;73.310;2022-11-04T07:31:30;3.90;;;1.17;;
73567;SDS011;61847;54.994;73.310;2022-11-04T07:33:56;5.22;;;1.48;;
73567;SDS011;61847;54.994;73.310;2022-11-04T07:36:22;10.63;;;1.45;;
73567;SDS011;61847;54.994;73.310;2022-11-04T07:38:48;3.70;;;1.40;;
73567;SDS011;61847;54.994;73.310;2022-11-04T07:41:15;5.28;;;1.20;;
73567;SDS011;61847;54.994;73.310;2022-11-04T07:43:46;5.13;;;1.48;;
73567;SDS011;61847;54.994;73.310;2022-11-04T07:46:13;4.50;;;1.38;;
73567;SDS011;61847;54.994;73.310;2022-11-04T07:48:39;4.90;;;1.60;;
73567;SDS011;61847;54.994;73.310;2022-11-04T07:51:06;1.52;;;1.00;;
73567;SDS011;61847;54.994;73.310;2022-11-04T07:53:35;4.43;;;1.20;;
73567;SDS011;61847;54.994;73.310;2022-11-04T07:56:03;2.72;;;1.20;;
73567;SDS011;61847;54.994;73.310;2022-11-04T07:58:31;2.38;;;1.00;;
73567;SDS011;61847;54.994;73.310;2022-11-04T08:01:02;8.63;;;1.25;;
73567;SDS011;61847;54.994;73.310;2022-11-04T08:03:34;3.38;;;1.23;;
73567;SDS011;61847;54.994;73.310;2022-11-04T08:06:02;2.30;;;1.30;;
73567;SDS011;61847;54.994;73.310;2022-11-04T08:08:30;5.15;;;1.73;;
73567;SDS011;61847;54.994;73.310;2022-11-04T08:11:02;5.63;;;1.52;;
73567;SDS011;61847;54.994;73.310;2022-11-04T08:13:35;3.63;;;1.08;;
73567;SDS011;61847;54.994;73.310;2022-11-04T08:16:35;7.88;;;1.30;;
73567;SDS011;61847;54.994;73.310;2022-11-04T08:18:55;2.67;;;1.10;;
73567;SDS011;61847;54.994;73.310;2022-11-04T08:21:36;8.10;;;1.85;;
73567;SDS011;61847;54.994;73.310;2022-11-04T08:24:02;7.88;;;1.90;;
73567;SDS011;61847;54.994;73.310;2022-11-04T08:26:29;5.97;;;1.85;;
73567;SDS011;61847;54.994;73.310;2022-11-04T08:29:06;4.63;;;1.77;;
73567;SDS011;61847;54.994;73.310;2022-11-04T08:31:33;6.53;;;1.48;;
73567;SDS011;61847;54.994;73.310;2022-11-04T08:34:01;9.43;;;1.48;;
73567;SDS011;61847;54.994;73.310;2022-11-04T08:36:29;5.15;;;1.30;;
73567;SDS011;61847;54.994;73.310;2022-11-04T08:39:02;5.20;;;2.00;;
73567;SDS011;61847;54.994;73.310;2022-11-04T08:41:30;11.18;;;1.95;;
73567;SDS011;61847;54.994;73.310;2022-11-04T08:43:57;4.97;;;1.67;;
73567;SDS011;61847;54.994;73.310;2022-11-04T08:46:30;7.07;;;1.92;;
73567;SDS011;61847;54.994;73.310;2022-11-04T08:49:01;11.20;;;1.70;;
73567;SDS011;61847;54.994;73.310;2022-11-04T08:51:33;8.13;;;1.50;;
73567;SDS011;61847;54.994;73.310;2022-11-04T08:54:02;10.25;;;1.50;;
73567;SDS011;61847;54.994;73.310;2022-11-04T08:56:31;13.40;;;1.70;;
73567;SDS011;61847;54.994;73.310;2022-11-04T08:58:59;11.95;;;1.92;;
73567;SDS011;61847;54.994;73.310;2022-11-04T09:01:27;10.88;;;2.10;;
73567;SDS011;61847;54.994;73.310;2022-11-04T09:03:54;9.82;;;1.83;;
73567;SDS011;61847;54.994;73.310;2022-11-04T09:06:25;13.85;;;2.42;;
73567;SDS011;61847;54.994;73.310;2022-11-04T09:08:56;16.35;;;2.58;;
73567;SDS011;61847;54.994;73.310;2022-11-04T09:11:26;10.73;;;2.00;;
73567;SDS011;61847;54.994;73.310;2022-11-04T09:13:52;14.20;;;2.63;;
73567;SDS011;61847;54.994;73.310;2022-11-04T09:16:19;13.38;;;2.33;;
73567;SDS011;61847;54.994;73.310;2022-11-04T09:18:45;10.40;;;1.90;;
73567;SDS011;61847;54.994;73.310;2022-11-04T09:21:21;11.18;;;2.25;;
73567;SDS011;61847;54.994;73.310;2022-11-04T09:23:47;12.30;;;1.95;;
73567;SDS011;61847;54.994;73.310;2022-11-04T09:26:14;16.95;;;2.65;;
73567;SDS011;61847;54.994;73.310;2022-11-04T09:28:46;21.15;;;2.30;;
73567;SDS011;61847;54.994;73.310;2022-11-04T09:31:16;17.05;;;2.28;;
73567;SDS011;61847;54.994;73.310;2022-11-04T09:33:43;14.32;;;2.85;;
73567;SDS011;61847;54.994;73.310;2022-11-04T09:36:10;19.45;;;2.95;;
73567;SDS011;61847;54.994;73.310;2022-11-04T09:38:39;18.90;;;2.83;;
73567;SDS011;61847;54.994;73.310;2022-11-04T09:41:29;11.98;;;2.60;;
73567;SDS011;61847;54.994;73.310;2022-11-04T09:44:22;10.48;;;2.47;;
73567;SDS011;61847;54.994;73.310;2022-11-04T09:46:53;11.40;;;2.20;;
73567;SDS011;61847;54.994;73.310;2022-11-04T09:49:23;14.55;;;2.35;;
73567;SDS011;61847;54.994;73.310;2022-11-04T09:51:54;9.98;;;2.38;;
73567;SDS011;61847;54.994;73.310;2022-11-04T09:54:26;16.42;;;2.42;;
73567;SDS011;61847;54.994;73.310;2022-11-04T09:57:12;10.15;;;2.22;;
73567;SDS011;61847;54.994;73.310;2022-11-04T09:59:44;19.88;;;2.45;;
73567;SDS011;61847;54.994;73.310;2022-11-04T10:02:22;14.98;;;2.50;;
73567;SDS011;61847;54.994;73.310;2022-11-04T10:05:01;11.90;;;1.38;;
73567;SDS011;61847;54.994;73.310;2022-11-04T10:11:23;6.57;;;1.30;;
73567;SDS011;61847;54.994;73.310;2022-11-04T10:17:34;2.45;;;0.85;;
73567;SDS011;61847;54.994;73.310;2022-11-04T10:20:37;12.65;;;1.25;;
73567;SDS011;61847;54.994;73.310;2022-11-04T10:23:21;5.82;;;1.08;;
73567;SDS011;61847;54.994;73.310;2022-11-04T10:25:59;8.13;;;1.13;;
73567;SDS011;61847;54.994;73.310;2022-11-04T10:28:33;7.85;;;1.60;;
73567;SDS011;61847;54.994;73.310;2022-11-04T10:31:05;17.85;;;2.03;;
73567;SDS011;61847;54.994;73.310;2022-11-04T10:33:36;8.57;;;1.90;;
73567;SDS011;61847;54.994;73.310;2022-11-04T10:36:07;13.95;;;2.20;;
73567;SDS011;61847;54.994;73.310;2022-11-04T10:38:56;8.65;;;2.10;;
73567;SDS011;61847;54.994;73.310;2022-11-04T10:43:50;22.25;;;7.10;;
73567;SDS011;61847;54.994;73.310;2022-11-04T10:48:52;4.68;;;1.80;;
73567;SDS011;61847;54.994;73.310;2022-11-04T10:51:25;7.93;;;1.92;;
73567;SDS011;61847;54.994;73.310;2022-11-04T10:53:54;8.60;;;1.73;;
73567;SDS011;61847;54.994;73.310;2022-11-04T10:56:42;11.32;;;1.40;;
73567;SDS011;61847;54.994;73.310;2022-11-04T10:59:29;11.95;;;1.58;;
73567;SDS011;61847;54.994;73.310;2022-11-04T11:02:16;8.77;;;1.27;;
73567;SDS011;61847;54.994;73.310;2022-11-04T11:04:42;10.40;;;1.50;;
73567;SDS011;61847;54.994;73.310;2022-11-04T11:07:12;5.90;;;1.58;;
73567;SDS011;61847;54.994;73.310;2022-11-04T11:12:20;17.02;;;1.90;;
73567;SDS011;61847;54.994;73.310;2022-11-04T11:14:55;9.13;;;1.58;;
73567;SDS011;61847;54.994;73.310;2022-11-04T11:17:34;14.73;;;1.63;;
73567;SDS011;61847;54.994;73.310;2022-11-04T11:22:47;10.77;;;1.60;;
73567;SDS011;61847;54.994;73.310;2022-11-04T11:25:23;8.35;;;1.67;;
73567;SDS011;61847;54.994;73.310;2022-11-04T11:28:10;12.15;;;2.55;;
73567;SDS011;61847;54.994;73.310;2022-11-04T11:33:19;7.80;;;2.03;;
73567;SDS011;61847;54.994;73.310;2022-11-04T11:35:57;10.43;;;2.55;;
73567;SDS011;61847;54.994;73.310;2022-11-04T11:38:31;17.05;;;2.33;;
73567;SDS011;61847;54.994;73.310;2022-11-04T11:41:06;7.65;;;2.00;;
73567;SDS011;61847;54.994;73.310;2022-11-04T11:43:34;7.30;;;2.15;;
73567;SDS011;61847;54.994;73.310;2022-11-04T11:46:08;12.10;;;1.95;;
73567;SDS011;61847;54.994;73.310;2022-11-04T11:48:40;11.00;;;2.00;;
73567;SDS011;61847;54.994;73.310;2022-11-04T11:51:13;8.55;;;2.60;;
73567;SDS011;61847;54.994;73.310;2022-11-04T11:54:01;9.82;;;2.83;;
73567;SDS011;61847;54.994;73.310;2022-11-04T11:56:34;14.25;;;3.10;;
73567;SDS011;61847;54.994;73.310;2022-11-04T12:04:29;18.02;;;3.05;;
73567;SDS011;61847;54.994;73.310;2022-11-04T12:20:40;20.65;;;4.57;;
73567;SDS011;61847;54.994;73.310;2022-11-04T12:29:06;22.75;;;4.53;;
73567;SDS011;61847;54.994;73.310;2022-11-04T12:31:55;13.88;;;4.15;;
73567;SDS011;61847;54.994;73.310;2022-11-04T12:34:49;12.07;;;3.75;;
73567;SDS011;61847;54.994;73.310;2022-11-04T12:37:33;20.90;;;3.97;;
73567;SDS011;61847;54.994;73.310;2022-11-04T12:42:43;14.82;;;3.50;;
73567;SDS011;61847;54.994;73.310;2022-11-04T12:48:06;19.30;;;4.40;;
73567;SDS011;61847;54.994;73.310;2022-11-04T13:01:44;26.23;;;5.05;;
73567;SDS011;61847;54.994;73.310;2022-11-04T13:04:22;19.35;;;5.03;;
73567;SDS011;61847;54.994;73.310;2022-11-04T13:07:14;20.63;;;4.70;;
73567;SDS011;61847;54.994;73.310;2022-11-04T13:09:52;24.92;;;5.97;;
73567;SDS011;61847;54.994;73.310;2022-11-04T13:12:33;20.83;;;5.88;;
73567;SDS011;61847;54.994;73.310;2022-11-04T13:15:19;25.17;;;6.38;;
73567;SDS011;61847;54.994;73.310;2022-11-04T13:17:50;26.15;;;6.47;;
73567;SDS011;61847;54.994;73.310;2022-11-04T13:23:21;29.73;;;7.22;;
73567;SDS011;61847;54.994;73.310;2022-11-04T13:26:00;23.35;;;6.85;;
73567;SDS011;61847;54.994;73.310;2022-11-04T13:28:30;29.20;;;7.65;;
73567;SDS011;61847;54.994;73.310;2022-11-04T13:31:02;29.58;;;6.40;;
73567;SDS011;61847;54.994;73.310;2022-11-04T13:36:27;30.42;;;6.28;;
73567;SDS011;61847;54.994;73.310;2022-11-04T13:39:14;31.42;;;6.15;;
73567;SDS011;61847;54.994;73.310;2022-11-04T13:47:32;20.27;;;4.85;;
73567;SDS011;61847;54.994;73.310;2022-11-04T13:50:28;21.40;;;4.90;;
73567;SDS011;61847;54.994;73.310;2022-11-04T13:53:07;14.27;;;4.05;;
73567;SDS011;61847;54.994;73.310;2022-11-04T13:55:48;17.17;;;4.53;;
73567;SDS011;61847;54.994;73.310;2022-11-04T13:58:18;30.80;;;4.78;;
73567;SDS011;61847;54.994;73.310;2022-11-04T14:01:11;16.23;;;4.18;;
73567;SDS011;61847;54.994;73.310;2022-11-04T14:03:51;15.02;;;3.70;;
73567;SDS011;61847;54.994;73.310;2022-11-04T14:14:46;20.15;;;4.03;;
73567;SDS011;61847;54.994;73.310;2022-11-04T14:30:43;14.15;;;3.92;;
73567;SDS011;61847;54.994;73.310;2022-11-04T14:33:22;18.45;;;4.35;;
73567;SDS011;61847;54.994;73.310;2022-11-04T14:47:16;13.20;;;3.95;;
73567;SDS011;61847;54.994;73.310;2022-11-04T14:50:20;11.95;;;3.10;;
73567;SDS011;61847;54.994;73.310;2022-11-04T14:55:16;10.88;;;3.38;;
73567;SDS011;61847;54.994;73.310;2022-11-04T15:00:59;16.15;;;3.17;;
73567;SDS011;61847;54.994;73.310;2022-11-04T15:03:30;13.93;;;3.40;;
73567;SDS011;61847;54.994;73.310;2022-11-04T15:06:02;12.65;;;3.05;;
73567;SDS011;61847;54.994;73.310;2022-11-04T15:08:41;11.52;;;3.38;;
73567;SDS011;61847;54.994;73.310;2022-11-04T15:13:51;15.40;;;3.88;;
73567;SDS011;61847;54.994;73.310;2022-11-04T15:16:27;24.27;;;4.03;;
73567;SDS011;61847;54.994;73.310;2022-11-04T15:18:56;13.57;;;3.50;;
73567;SDS011;61847;54.994;73.310;2022-11-04T15:21:24;15.35;;;3.58;;
73567;SDS011;61847;54.994;73.310;2022-11-04T15:23:54;16.70;;;3.75;;
73567;SDS011;61847;54.994;73.310;2022-11-04T15:28:54;9.57;;;3.65;;
73567;SDS011;61847;54.994;73.310;2022-11-04T15:31:25;20.52;;;4.03;;
73567;SDS011;61847;54.994;73.310;2022-11-04T15:34:04;14.90;;;4.00;;
73567;SDS011;61847;54.994;73.310;2022-11-04T15:36:34;12.40;;;4.32;;
73567;SDS011;61847;54.994;73.310;2022-11-04T15:39:07;24.52;;;4.32;;
73567;SDS011;61847;54.994;73.310;2022-11-04T15:41:48;11.50;;;4.35;;
73567;SDS011;61847;54.994;73.310;2022-11-04T15:44:35;15.30;;;4.47;;
73567;SDS011;61847;54.994;73.310;2022-11-04T15:49:53;11.40;;;4.72;;
73567;SDS011;61847;54.994;73.310;2022-11-04T15:52:27;13.48;;;4.70;;
73567;SDS011;61847;54.994;73.310;2022-11-04T15:54:57;13.75;;;4.75;;
73567;SDS011;61847;54.994;73.310;2022-11-04T15:57:33;14.88;;;4.85;;
73567;SDS011;61847;54.994;73.310;2022-11-04T16:02:47;14.43;;;4.95;;
73567;SDS011;61847;54.994;73.310;2022-11-04T16:05:26;12.95;;;4.80;;
73567;SDS011;61847;54.994;73.310;2022-11-04T16:07:55;12.23;;;4.72;;
73567;SDS011;61847;54.994;73.310;2022-11-04T16:10:43;20.05;;;4.60;;
73567;SDS011;61847;54.994;73.310;2022-11-04T16:15:40;17.30;;;4.18;;
73567;SDS011;61847;54.994;73.310;2022-11-04T16:21:11;16.02;;;4.97;;
73567;SDS011;61847;54.994;73.310;2022-11-04T16:23:55;13.52;;;4.55;;
73567;SDS011;61847;54.994;73.310;2022-11-04T16:26:36;15.13;;;4.20;;
73567;SDS011;61847;54.994;73.310;2022-11-04T16:29:09;13.98;;;4.68;;
73567;SDS011;61847;54.994;73.310;2022-11-04T16:31:42;23.50;;;4.30;;
73567;SDS011;61847;54.994;73.310;2022-11-04T16:34:12;14.25;;;4.40;;
73567;SDS011;61847;54.994;73.310;2022-11-04T16:36:38;14.05;;;4.55;;
73567;SDS011;61847;54.994;73.310;2022-11-04T16:39:05;18.08;;;5.70;;
73567;SDS011;61847;54.994;73.310;2022-11-04T16:41:34;13.23;;;4.40;;
73567;SDS011;61847;54.994;73.310;2022-11-04T16:44:14;14.43;;;4.72;;
73567;SDS011;61847;54.994;73.310;2022-11-04T16:46:44;9.52;;;4.38;;
73567;SDS011;61847;54.994;73.310;2022-11-04T16:49:12;10.75;;;3.90;;
73567;SDS011;61847;54.994;73.310;2022-11-04T16:51:40;27.80;;;4.95;;
73567;SDS011;61847;54.994;73.310;2022-11-04T16:54:12;12.77;;;4.80;;
73567;SDS011;61847;54.994;73.310;2022-11-04T16:56:38;16.08;;;4.65;;
73567;SDS011;61847;54.994;73.310;2022-11-04T16:59:04;25.75;;;5.47;;
73567;SDS011;61847;54.994;73.310;2022-11-04T17:01:30;9.18;;;4.20;;
73567;SDS011;61847;54.994;73.310;2022-11-04T17:03:56;17.92;;;4.93;;
73567;SDS011;61847;54.994;73.310;2022-11-04T17:06:23;12.50;;;4.95;;
73567;SDS011;61847;54.994;73.310;2022-11-04T17:08:58;15.57;;;5.65;;
73567;SDS011;61847;54.994;73.310;2022-11-04T17:11:26;25.35;;;4.78;;
73567;SDS011;61847;54.994;73.310;2022-11-04T17:13:54;14.20;;;4.90;;
73567;SDS011;61847;54.994;73.310;2022-11-04T17:16:21;10.50;;;4.97;;
73567;SDS011;61847;54.994;73.310;2022-11-04T17:18:52;12.85;;;5.00;;
73567;SDS011;61847;54.994;73.310;2022-11-04T17:21:19;21.92;;;9.32;;
73567;SDS011;61847;54.994;73.310;2022-11-04T17:23:47;12.70;;;5.63;;
73567;SDS011;61847;54.994;73.310;2022-11-04T17:26:18;17.63;;;5.25;;
73567;SDS011;61847;54.994;73.310;2022-11-04T17:28:44;14.15;;;5.43;;
73567;SDS011;61847;54.994;73.310;2022-11-04T17:31:14;14.48;;;5.70;;
73567;SDS011;61847;54.994;73.310;2022-11-04T17:33:43;20.13;;;6.03;;
73567;SDS011;61847;54.994;73.310;2022-11-04T17:36:14;14.43;;;5.70;;
73567;SDS011;61847;54.994;73.310;2022-11-04T17:38:47;12.10;;;5.78;;
73567;SDS011;61847;54.994;73.310;2022-11-04T17:41:13;15.70;;;6.07;;
73567;SDS011;61847;54.994;73.310;2022-11-04T17:43:57;13.90;;;6.28;;
73567;SDS011;61847;54.994;73.310;2022-11-04T17:46:30;13.18;;;5.30;;
73567;SDS011;61847;54.994;73.310;2022-11-04T17:49:17;18.58;;;6.43;;
73567;SDS011;61847;54.994;73.310;2022-11-04T17:51:52;12.88;;;5.65;;
73567;SDS011;61847;54.994;73.310;2022-11-04T17:54:30;16.88;;;6.22;;
73567;SDS011;61847;54.994;73.310;2022-11-04T17:57:01;16.17;;;6.53;;
73567;SDS011;61847;54.994;73.310;2022-11-04T17:59:28;11.30;;;5.55;;